Time;durP1;ratioP1;P1;durP2;ratioP2;P2;SDS_P1;SDS_P2;PMS_P1;PMS_P2;Temp;Humidity;BMP_temperature;BMP_pressure;BME280_temperature;BME280_humidity;BME280_pressure;Samples;Min_cycle;Max_cycle;Signal;HPM_P1;HPM_P2
2023/07/02 00:00:28;;;;;;;10.68;8.25;;;;;;;;;;2601661;22;19996;-94
2023/07/02 00:01:29;;;;;;;11.02;8.38;;;;;;;;;;2595232;22;20071;-94
2023/07/02 00:02:36;;;;;;;9.50;8.18;;;;;;;;;;2612549;22;19995;-95
2023/07/02 00:03:40;;;;;;;9.57;7.15;;;;;;;;;;2612537;22;20102;-95
2023/07/02 00:04:41;;;;;;;12.38;7.75;;;;;;;;;;2612483;22;20025;-93
2023/07/02 00:05:41;;;;;;;10.85;8.02;;;;;;;;;;2613119;22;19997;-94
2023/07/02 00:06:53;;;;;;;10.98;7.47;;;;;;;;;;2607464;22;19991;-94
2023/07/02 00:07:56;;;;;;;12.13;9.00;;;;;;;;;;2601757;22;20057;-94
2023/07/02 00:08:56;;;;;;;11.20;8.35;;;;;;;;;;2612329;22;19991;-94
2023/07/02 00:09:57;;;;;;;10.43;8.25;;;;;;;;;;2608168;22;20033;-95
2023/07/02 00:10:59;;;;;;;13.63;8.95;;;;;;;;;;2595067;22;20333;-94
2023/07/02 00:12:00;;;;;;;10.73;7.72;;;;;;;;;;2607560;22;19995;-95
2023/07/02 00:13:00;;;;;;;11.90;8.23;;;;;;;;;;2612102;22;20078;-95
2023/07/02 00:14:01;;;;;;;11.52;7.82;;;;;;;;;;2608023;22;19995;-95
2023/07/02 00:15:11;;;;;;;10.75;8.15;;;;;;;;;;2595069;22;20060;-95
2023/07/02 00:16:12;;;;;;;10.23;8.10;;;;;;;;;;2612724;22;19995;-94
2023/07/02 00:17:13;;;;;;;12.18;8.52;;;;;;;;;;2607603;22;20071;-94
2023/07/02 00:18:16;;;;;;;12.88;8.23;;;;;;;;;;2607819;22;19991;-95
2023/07/02 00:19:24;;;;;;;11.27;8.00;;;;;;;;;;2595417;22;20050;-95
2023/07/02 00:20:30;;;;;;;12.70;8.23;;;;;;;;;;2596878;22;20021;-93
2023/07/02 00:21:35;;;;;;;13.70;9.27;;;;;;;;;;2607502;22;19991;-94
2023/07/02 00:22:36;;;;;;;13.32;7.93;;;;;;;;;;2607729;22;20073;-94
2023/07/02 00:23:41;;;;;;;12.07;8.90;;;;;;;;;;2623718;22;19983;-95
2023/07/02 00:24:42;;;;;;;12.13;8.50;;;;;;;;;;2617346;22;20019;-95
2023/07/02 00:25:43;;;;;;;14.15;8.23;;;;;;;;;;2617503;22;19987;-96
2023/07/02 00:26:43;;;;;;;11.88;8.93;;;;;;;;;;2616708;22;20059;-94
2023/07/02 00:27:44;;;;;;;12.55;8.02;;;;;;;;;;2617093;22;19995;-93
2023/07/02 00:28:57;;;;;;;;;;;;;;;;;;;;;
2023/07/02 00:30:00;;;;;;;13.35;8.90;;;;;;;;;;2615175;22;20006;-95
2023/07/02 00:31:01;;;;;;;10.93;7.93;;;;;;;;;;2611822;22;20051;-94
2023/07/02 00:32:05;;;;;;;12.75;8.90;;;;;;;;;;2597451;22;20441;-95
2023/07/02 00:33:06;;;;;;;12.88;9.43;;;;;;;;;;2597557;22;19998;-95
2023/07/02 00:34:06;;;;;;;14.60;9.02;;;;;;;;;;2596476;22;19996;-94
2023/07/02 00:35:07;;;;;;;11.18;8.48;;;;;;;;;;2595319;22;20074;-93
2023/07/02 00:36:12;;;;;;;12.65;9.05;;;;;;;;;;2595033;22;20052;-94
2023/07/02 00:37:14;;;;;;;11.60;9.25;;;;;;;;;;2600158;22;20074;-92
2023/07/02 00:38:17;;;;;;;10.43;8.40;;;;;;;;;;2595137;22;20007;-93
2023/07/02 00:39:17;;;;;;;10.85;8.55;;;;;;;;;;2595005;22;20338;-94
2023/07/02 00:40:21;;;;;;;11.88;8.73;;;;;;;;;;2595588;22;20013;-93
2023/07/02 00:41:22;;;;;;;11.73;8.10;;;;;;;;;;2595607;22;19996;-92
2023/07/02 00:42:29;;;;;;;11.25;8.55;;;;;;;;;;2594879;22;20562;-96
2023/07/02 00:43:43;;;;;;;11.38;8.38;;;;;;;;;;2608980;22;20005;-93
2023/07/02 00:44:44;;;;;;;11.13;8.43;;;;;;;;;;2601317;22;20063;-95
2023/07/02 00:45:52;;;;;;;14.75;9.40;;;;;;;;;;2595261;22;20090;-93
2023/07/02 00:46:55;;;;;;;11.30;8.75;;;;;;;;;;2596392;22;20073;-96
2023/07/02 00:47:58;;;;;;;13.50;9.15;;;;;;;;;;2595909;22;20323;-95
2023/07/02 00:49:00;;;;;;;12.75;9.20;;;;;;;;;;2608027;22;19995;-95
2023/07/02 00:50:02;;;;;;;12.07;8.90;;;;;;;;;;2607699;22;19999;-95
2023/07/02 00:51:03;;;;;;;11.98;8.48;;;;;;;;;;2612203;22;19992;-95
2023/07/02 00:52:08;;;;;;;12.57;8.70;;;;;;;;;;2607530;22;20098;-95
2023/07/02 00:53:16;;;;;;;11.23;8.25;;;;;;;;;;2607660;22;20002;-95
2023/07/02 00:54:19;;;;;;;12.20;9.10;;;;;;;;;;2612315;22;19999;-95
2023/07/02 00:55:23;;;;;;;14.48;8.93;;;;;;;;;;2607414;22;19999;-94
2023/07/02 00:56:27;;;;;;;10.35;7.88;;;;;;;;;;2595688;22;19996;-94
2023/07/02 00:57:30;;;;;;;11.63;8.10;;;;;;;;;;2607783;22;20041;-94
2023/07/02 00:58:30;;;;;;;10.88;8.82;;;;;;;;;;2595251;22;19992;-94
2023/07/02 00:59:37;;;;;;;10.55;8.23;;;;;;;;;;2595080;22;20489;-94
2023/07/02 01:00:38;;;;;;;10.10;8.05;;;;;;;;;;2600275;22;20057;-95
2023/07/02 01:01:39;;;;;;;10.80;8.60;;;;;;;;;;2594944;22;20072;-96
2023/07/02 01:02:46;;;;;;;9.57;8.00;;;;;;;;;;2594940;22;20002;-95
2023/07/02 01:04:00;;;;;;;13.13;8.02;;;;;;;;;;2607696;22;19988;-95
2023/07/02 01:05:00;;;;;;;13.68;8.20;;;;;;;;;;2598057;22;20032;-95
2023/07/02 01:06:03;;;;;;;10.63;8.10;;;;;;;;;;2595572;22;20008;-95
2023/07/02 01:07:08;;;;;;;10.10;7.85;;;;;;;;;;2595782;22;20027;-96
2023/07/02 01:08:11;;;;;;;11.35;8.25;;;;;;;;;;2596502;22;20030;-96
2023/07/02 01:09:12;;;;;;;13.98;8.55;;;;;;;;;;2595545;22;19996;-96
2023/07/02 01:10:13;;;;;;;10.25;8.43;;;;;;;;;;2595102;22;20010;-96
2023/07/02 01:11:15;;;;;;;10.52;8.40;;;;;;;;;;2607500;22;19995;-95
2023/07/02 01:12:17;;;;;;;13.88;9.05;;;;;;;;;;2612248;22;19992;-95
2023/07/02 01:13:20;;;;;;;14.30;7.95;;;;;;;;;;2607185;22;19999;-95
2023/07/02 01:14:33;;;;;;;9.98;8.82;;;;;;;;;;2607669;22;19999;-94
2023/07/02 01:15:34;;;;;;;14.80;8.23;;;;;;;;;;2607849;22;19988;-95
2023/07/02 01:16:38;;;;;;;11.90;8.25;;;;;;;;;;2594781;22;20034;-95
2023/07/02 01:17:46;;;;;;;9.95;8.05;;;;;;;;;;2596787;22;20070;-95
2023/07/02 01:18:48;;;;;;;14.98;8.88;;;;;;;;;;2600882;22;20097;-95
2023/07/02 01:19:51;;;;;;;13.25;8.75;;;;;;;;;;2595125;22;20315;-95
2023/07/02 01:20:53;;;;;;;12.82;8.63;;;;;;;;;;2157688;22;10336878;-95
2023/07/02 01:21:56;;;;;;;11.07;8.55;;;;;;;;;;2595001;22;20019;-94
2023/07/02 01:23:02;;;;;;;12.00;8.77;;;;;;;;;;2595398;22;20310;-95
2023/07/02 01:24:03;;;;;;;12.07;9.23;;;;;;;;;;2611953;22;20429;-95
2023/07/02 01:25:05;;;;;;;13.50;8.93;;;;;;;;;;2611987;22;20021;-96
2023/07/02 01:26:10;;;;;;;12.25;9.18;;;;;;;;;;2607684;22;20029;-94
2023/07/02 01:27:14;;;;;;;12.95;8.57;;;;;;;;;;2595893;22;20011;-94
2023/07/02 01:28:15;;;;;;;14.18;9.13;;;;;;;;;;2595612;22;20194;-95
2023/07/02 01:29:17;;;;;;;12.43;8.90;;;;;;;;;;2594682;22;20125;-94
2023/07/02 01:30:17;;;;;;;9.57;8.13;;;;;;;;;;2607673;22;19999;-95
2023/07/02 01:31:24;;;;;;;13.05;9.00;;;;;;;;;;2608937;22;19999;-94
2023/07/02 01:32:25;;;;;;;14.50;8.82;;;;;;;;;;2617736;22;20010;-93
2023/07/02 01:33:26;;;;;;;12.65;8.48;;;;;;;;;;2594860;22;20024;-95
2023/07/02 01:34:26;;;;;;;13.25;8.68;;;;;;;;;;2608005;22;20074;-94
2023/07/02 01:35:27;;;;;;;12.68;8.40;;;;;;;;;;2594784;22;19999;-95
2023/07/02 01:36:27;;;;;;;16.75;8.65;;;;;;;;;;2611773;22;19998;-95
2023/07/02 01:37:28;;;;;;;13.45;8.90;;;;;;;;;;2612620;22;20056;-96
2023/07/02 01:38:30;;;;;;;10.93;8.00;;;;;;;;;;2612860;22;20010;-95
2023/07/02 01:39:31;;;;;;;12.27;8.45;;;;;;;;;;2607606;22;20074;-95
2023/07/02 01:40:32;;;;;;;12.48;8.80;;;;;;;;;;2594924;22;20002;-96
2023/07/02 01:41:41;;;;;;;14.52;8.93;;;;;;;;;;2607611;22;19992;-95
2023/07/02 01:42:42;;;;;;;10.35;8.27;;;;;;;;;;2607704;22;19995;-94
2023/07/02 01:43:42;;;;;;;11.88;8.68;;;;;;;;;;2594254;22;19997;-96
2023/07/02 01:44:47;;;;;;;20.08;9.55;;;;;;;;;;2594809;22;20019;-96
2023/07/02 01:45:48;;;;;;;13.27;8.43;;;;;;;;;;2595436;22;19996;-95
2023/07/02 01:46:51;;;;;;;12.27;8.88;;;;;;;;;;2594848;22;20042;-94
2023/07/02 01:47:51;;;;;;;10.75;8.32;;;;;;;;;;2611814;22;19991;-94
2023/07/02 01:48:55;;;;;;;12.95;8.98;;;;;;;;;;2607361;22;20530;-95
2023/07/02 01:50:06;;;;;;;13.63;8.55;;;;;;;;;;2607417;22;19999;-94
2023/07/02 01:51:09;;;;;;;;;;;;;;;;;;2614548;22;20029;-95
2023/07/02 01:52:11;;;;;;;12.65;8.82;;;;;;;;;;2624718;22;20256;-94
2023/07/02 01:53:14;;;;;;;12.85;9.15;;;;;;;;;;2607883;22;20006;-94
2023/07/02 01:54:15;;;;;;;11.95;8.80;;;;;;;;;;2607872;22;20010;-95
2023/07/02 01:55:17;;;;;;;13.77;8.90;;;;;;;;;;2612289;22;20115;-94
2023/07/02 01:56:19;;;;;;;13.55;9.73;;;;;;;;;;2607805;22;20070;-95
2023/07/02 01:57:22;;;;;;;11.18;8.63;;;;;;;;;;2612276;22;20069;-95
2023/07/02 01:58:23;;;;;;;11.95;8.65;;;;;;;;;;2607710;22;19995;-96
2023/07/02 01:59:24;;;;;;;17.73;9.40;;;;;;;;;;2594923;22;20465;-95
2023/07/02 02:00:24;;;;;;;12.65;8.70;;;;;;;;;;2612088;22;20013;-94
2023/07/02 02:01:27;;;;;;;13.82;9.15;;;;;;;;;;2607550;22;19999;-95
2023/07/02 02:02:28;;;;;;;13.63;9.57;;;;;;;;;;2595288;22;19995;-95
2023/07/02 02:03:33;;;;;;;13.57;9.43;;;;;;;;;;2594882;22;20459;-95
2023/07/02 02:04:33;;;;;;;13.88;9.68;;;;;;;;;;2612371;22;20336;-94
2023/07/02 02:05:35;;;;;;;15.48;9.50;;;;;;;;;;2607707;22;19995;-95
2023/07/02 02:06:39;;;;;;;12.52;9.10;;;;;;;;;;2612041;22;20067;-96
2023/07/02 02:07:42;;;;;;;13.10;9.45;;;;;;;;;;2607441;22;20000;-95
2023/07/02 02:08:45;;;;;;;11.07;8.52;;;;;;;;;;2612192;22;19987;-95
2023/07/02 02:09:46;;;;;;;12.40;8.95;;;;;;;;;;2607638;22;20063;-96
2023/07/02 02:10:46;;;;;;;11.45;8.95;;;;;;;;;;2607339;22;20439;-94
2023/07/02 02:11:52;;;;;;;14.85;8.98;;;;;;;;;;2607772;22;19995;-95
2023/07/02 02:12:52;;;;;;;13.05;8.95;;;;;;;;;;2611752;22;19992;-95
2023/07/02 02:13:53;;;;;;;12.50;8.93;;;;;;;;;;2606970;22;20070;-95
2023/07/02 02:14:58;;;;;;;15.07;9.60;;;;;;;;;;2606847;22;20399;-95
2023/07/02 02:16:01;;;;;;;15.68;10.02;;;;;;;;;;2595881;22;20086;-94
2023/07/02 02:17:07;;;;;;;11.95;9.45;;;;;;;;;;2611559;22;19998;-94
2023/07/02 02:18:18;;;;;;;13.05;9.35;;;;;;;;;;2611889;22;20024;-95
2023/07/02 02:19:19;;;;;;;13.90;9.23;;;;;;;;;;2612680;22;19995;-95
2023/07/02 02:20:22;;;;;;;15.13;9.38;;;;;;;;;;2615379;22;20387;-92
2023/07/02 02:21:22;;;;;;;16.10;9.52;;;;;;;;;;2608007;22;20389;-95
2023/07/02 02:22:25;;;;;;;13.45;9.15;;;;;;;;;;2594728;22;19995;-95
2023/07/02 02:23:28;;;;;;;15.45;9.30;;;;;;;;;;2595219;22;20433;-94
2023/07/02 02:24:33;;;;;;;12.48;9.15;;;;;;;;;;2595235;22;20075;-95
2023/07/02 02:25:39;;;;;;;14.15;9.50;;;;;;;;;;2612272;22;19987;-95
2023/07/02 02:26:40;;;;;;;17.67;9.88;;;;;;;;;;2611689;22;19991;-94
2023/07/02 02:27:43;;;;;;;14.48;9.82;;;;;;;;;;2612078;22;20294;-95
2023/07/02 02:28:46;;;;;;;16.67;10.65;;;;;;;;;;2607851;22;19988;-95
2023/07/02 02:29:50;;;;;;;17.85;11.20;;;;;;;;;;2608218;22;20002;-94
2023/07/02 02:30:50;;;;;;;12.88;9.57;;;;;;;;;;2612217;22;19999;-94
2023/07/02 02:31:51;;;;;;;13.63;9.80;;;;;;;;;;2612631;22;20007;-94
2023/07/02 02:32:51;;;;;;;19.83;9.38;;;;;;;;;;2607583;22;19995;-95
2023/07/02 02:33:54;;;;;;;16.73;9.75;;;;;;;;;;2594956;22;20014;-95
2023/07/02 02:34:54;;;;;;;14.43;9.77;;;;;;;;;;2595589;22;20003;-95
2023/07/02 02:35:55;;;;;;;15.88;10.05;;;;;;;;;;2607537;22;20029;-95
2023/07/02 02:36:56;;;;;;;12.82;9.85;;;;;;;;;;2611874;22;20470;-94
2023/07/02 02:37:57;;;;;;;17.77;9.65;;;;;;;;;;2607717;22;20080;-95
2023/07/02 02:38:59;;;;;;;12.43;8.88;;;;;;;;;;2608278;22;20003;-95
2023/07/02 02:40:00;;;;;;;16.20;10.13;;;;;;;;;;2607487;22;19991;-95
2023/07/02 02:41:08;;;;;;;15.13;9.80;;;;;;;;;;2295529;22;10001993;-95
2023/07/02 02:42:10;;;;;;;23.52;11.68;;;;;;;;;;2596148;22;20197;-95
2023/07/02 02:43:11;;;;;;;16.00;9.85;;;;;;;;;;2595098;22;20453;-96
2023/07/02 02:44:11;;;;;;;13.63;10.77;;;;;;;;;;2594405;22;19995;-93
2023/07/02 02:45:15;;;;;;;16.83;10.48;;;;;;;;;;2594493;22;20498;-94
2023/07/02 02:46:22;;;;;;;14.13;9.45;;;;;;;;;;2611634;22;20336;-94
2023/07/02 02:47:23;;;;;;;12.60;9.48;;;;;;;;;;2612430;22;19999;-93
2023/07/02 02:48:23;;;;;;;19.30;9.98;;;;;;;;;;2607323;22;20029;-95
2023/07/02 02:49:24;;;;;;;17.25;9.55;;;;;;;;;;2606978;22;19995;-95
2023/07/02 02:50:24;;;;;;;13.98;10.10;;;;;;;;;;2594681;22;20051;-95
2023/07/02 02:51:25;;;;;;;14.48;9.88;;;;;;;;;;2611759;22;20005;-96
2023/07/02 02:52:28;;;;;;;18.65;10.43;;;;;;;;;;2612400;22;20021;-94
2023/07/02 02:53:31;;;;;;;16.33;10.43;;;;;;;;;;2617743;22;20018;-93
2023/07/02 02:54:32;;;;;;;18.58;10.02;;;;;;;;;;2618341;22;20001;-93
2023/07/02 02:55:32;;;;;;;14.77;10.77;;;;;;;;;;2605827;22;20046;-93
2023/07/02 02:56:32;;;;;;;18.92;11.00;;;;;;;;;;2623188;22;19987;-94
2023/07/02 02:57:33;;;;;;;15.95;10.65;;;;;;;;;;2618306;22;19991;-94
2023/07/02 02:58:34;;;;;;;16.33;10.50;;;;;;;;;;2616028;22;20361;-95
2023/07/02 02:59:39;;;;;;;14.85;10.75;;;;;;;;;;2610247;22;19999;-94
2023/07/02 03:00:45;;;;;;;17.25;10.93;;;;;;;;;;2613512;22;20375;-94
2023/07/02 03:01:48;;;;;;;17.23;10.88;;;;;;;;;;2607294;22;20358;-95
2023/07/02 03:02:48;;;;;;;14.88;10.38;;;;;;;;;;2607454;22;20002;-94
2023/07/02 03:03:49;;;;;;;15.23;10.20;;;;;;;;;;2607136;22;20041;-94
2023/07/02 03:04:49;;;;;;;16.25;10.35;;;;;;;;;;2607544;22;20313;-94
2023/07/02 03:05:50;;;;;;;17.25;10.90;;;;;;;;;;2610246;22;20117;-95
2023/07/02 03:06:52;;;;;;;16.13;10.82;;;;;;;;;;2607363;22;20056;-94
2023/07/02 03:07:55;;;;;;;22.33;11.75;;;;;;;;;;2609236;22;19996;-91
2023/07/02 03:08:56;;;;;;;14.43;10.38;;;;;;;;;;2613842;22;20061;-94
2023/07/02 03:09:56;;;;;;;16.33;10.93;;;;;;;;;;2607871;22;20297;-94
2023/07/02 03:10:57;;;;;;;18.27;10.40;;;;;;;;;;2612451;22;20041;-94
2023/07/02 03:11:58;;;;;;;16.05;10.10;;;;;;;;;;2607746;22;20391;-94
2023/07/02 03:13:03;;;;;;;19.83;10.73;;;;;;;;;;2612595;22;19995;-93
2023/07/02 03:14:04;;;;;;;12.82;9.43;;;;;;;;;;2608160;22;20360;-93
2023/07/02 03:15:04;;;;;;;18.35;9.65;;;;;;;;;;2595354;22;20222;-94
2023/07/02 03:16:05;;;;;;;16.27;9.68;;;;;;;;;;2612304;22;20002;-94
2023/07/02 03:17:08;;;;;;;21.17;9.48;;;;;;;;;;2607862;22;19995;-95
2023/07/02 03:18:11;;;;;;;17.38;10.13;;;;;;;;;;2595876;22;20002;-94
2023/07/02 03:19:15;;;;;;;17.52;10.52;;;;;;;;;;2595820;22;20460;-95
2023/07/02 03:20:18;;;;;;;14.65;10.32;;;;;;;;;;2596126;22;20078;-94
2023/07/02 03:21:18;;;;;;;15.55;10.05;;;;;;;;;;2595879;22;20019;-94
2023/07/02 03:22:21;;;;;;;15.93;9.90;;;;;;;;;;2608506;22;20054;-93
2023/07/02 03:23:24;;;;;;;12.57;9.73;;;;;;;;;;2596988;22;19992;-93
2023/07/02 03:24:25;;;;;;;21.42;11.27;;;;;;;;;;2606816;22;20011;-92
2023/07/02 03:25:26;;;;;;;11.15;9.20;;;;;;;;;;2606608;22;20341;-93
2023/07/02 03:26:33;;;;;;;14.60;10.15;;;;;;;;;;2606419;22;20070;-93
2023/07/02 03:27:42;;;;;;;18.23;10.32;;;;;;;;;;2612029;22;20053;-92
2023/07/02 03:28:50;;;;;;;19.35;9.93;;;;;;;;;;2608472;22;20015;-93
2023/07/02 03:29:52;;;;;;;13.90;9.75;;;;;;;;;;2610476;22;20000;-95
2023/07/02 03:30:53;;;;;;;13.43;9.52;;;;;;;;;;2612837;22;20448;-95
2023/07/02 03:31:57;;;;;;;13.45;9.25;;;;;;;;;;2607819;22;20078;-95
2023/07/02 03:33:06;;;;;;;12.60;9.75;;;;;;;;;;2607886;22;20392;-94
2023/07/02 03:34:09;;;;;;;12.48;9.15;;;;;;;;;;2609148;22;20007;-94
2023/07/02 03:35:09;;;;;;;17.13;9.57;;;;;;;;;;2612143;22;19998;-94
2023/07/02 03:36:13;;;;;;;25.10;10.93;;;;;;;;;;2607718;22;19995;-94
2023/07/02 03:37:13;;;;;;;12.38;9.95;;;;;;;;;;2608556;22;20070;-93
2023/07/02 03:38:20;;;;;;;13.75;9.13;;;;;;;;;;2596351;22;20000;-94
2023/07/02 03:39:20;;;;;;;11.23;9.35;;;;;;;;;;2596194;22;19995;-94
2023/07/02 03:40:21;;;;;;;16.77;9.48;;;;;;;;;;2594931;22;20489;-94
2023/07/02 03:41:21;;;;;;;15.52;9.98;;;;;;;;;;2612321;22;20057;-95
2023/07/02 03:42:22;;;;;;;11.85;8.50;;;;;;;;;;2608384;22;20070;-94
2023/07/02 03:43:24;;;;;;;14.63;9.23;;;;;;;;;;2595014;22;20062;-94
2023/07/02 03:44:27;;;;;;;15.50;8.13;;;;;;;;;;2611935;22;20022;-94
2023/07/02 03:45:28;;;;;;;11.60;8.93;;;;;;;;;;2607695;22;20467;-93
2023/07/02 03:46:38;;;;;;;;;;;;;;;;;;;;;
2023/07/02 03:47:41;;;;;;;14.05;8.63;;;;;;;;;;2612053;22;19999;-94
2023/07/02 03:48:45;;;;;;;13.30;9.52;;;;;;;;;;2607855;22;20437;-95
2023/07/02 03:49:48;;;;;;;12.18;9.88;;;;;;;;;;2612288;22;20407;-94
2023/07/02 03:50:51;;;;;;;15.57;9.25;;;;;;;;;;2607657;22;20454;-94
2023/07/02 03:51:54;;;;;;;10.90;8.00;;;;;;;;;;2595624;22;20023;-93
2023/07/02 03:52:54;;;;;;;10.52;8.07;;;;;;;;;;2612292;22;19991;-93
2023/07/02 03:53:55;;;;;;;12.80;8.63;;;;;;;;;;2613539;22;20001;-96
2023/07/02 03:54:59;;;;;;;12.00;8.45;;;;;;;;;;2615291;22;20006;-95
2023/07/02 03:56:02;;;;;;;12.80;8.73;;;;;;;;;;2612589;22;20054;-92
2023/07/02 03:57:02;;;;;;;13.50;8.18;;;;;;;;;;2614844;22;20094;-95
2023/07/02 03:58:07;;;;;;;10.68;8.10;;;;;;;;;;2606810;22;19999;-94
2023/07/02 03:59:08;;;;;;;11.50;8.48;;;;;;;;;;2607832;22;20000;-95
2023/07/02 04:00:14;;;;;;;11.90;9.15;;;;;;;;;;2607923;22;20011;-95
2023/07/02 04:01:17;;;;;;;13.98;9.32;;;;;;;;;;2612257;22;20060;-95
2023/07/02 04:02:18;;;;;;;16.42;8.88;;;;;;;;;;2607767;22;20081;-94
2023/07/02 04:03:18;;;;;;;14.27;8.45;;;;;;;;;;2608097;22;20450;-95
2023/07/02 04:04:19;;;;;;;13.75;7.90;;;;;;;;;;2607953;22;19995;-94
2023/07/02 04:05:20;;;;;;;12.95;8.60;;;;;;;;;;2607813;22;20006;-95
2023/07/02 04:06:20;;;;;;;12.43;8.38;;;;;;;;;;2594884;22;20078;-95
2023/07/02 04:07:23;;;;;;;11.45;8.25;;;;;;;;;;2594934;22;19999;-95
2023/07/02 04:08:34;;;;;;;11.13;7.97;;;;;;;;;;2595839;22;19992;-94
2023/07/02 04:09:37;;;;;;;;;;;;;;;;;;2613132;22;19988;-95
2023/07/02 04:10:37;;;;;;;14.90;7.97;;;;;;;;;;2612825;22;19983;-96
2023/07/02 04:11:43;;;;;;;15.65;8.27;;;;;;;;;;2608375;22;19995;-96
2023/07/02 04:12:44;;;;;;;15.25;8.45;;;;;;;;;;1700178;22;10442002;-95
2023/07/02 04:13:47;;;;;;;14.10;8.18;;;;;;;;;;2607823;22;20066;-95
2023/07/02 04:14:47;;;;;;;14.98;8.77;;;;;;;;;;2595587;22;19996;-95
2023/07/02 04:15:50;;;;;;;15.02;8.07;;;;;;;;;;2612376;22;20398;-95
2023/07/02 04:16:51;;;;;;;14.30;8.13;;;;;;;;;;2608103;22;20018;-96
2023/07/02 04:17:56;;;;;;;11.63;8.15;;;;;;;;;;2612553;22;20275;-95
2023/07/02 04:18:59;;;;;;;14.02;8.65;;;;;;;;;;2608027;22;19991;-96
2023/07/02 04:20:03;;;;;;;12.02;8.00;;;;;;;;;;2608244;22;20451;-96
2023/07/02 04:21:04;;;;;;;10.48;8.55;;;;;;;;;;2595874;22;20002;-96
2023/07/02 04:22:04;;;;;;;11.18;8.35;;;;;;;;;;2594743;22;20079;-96
2023/07/02 04:23:06;;;;;;;14.88;9.10;;;;;;;;;;2595847;22;20000;-96
2023/07/02 04:24:06;;;;;;;14.60;8.60;;;;;;;;;;2595749;22;20033;-95
2023/07/02 04:25:09;;;;;;;12.77;8.75;;;;;;;;;;2594982;22;20445;-94
2023/07/02 04:26:15;;;;;;;10.93;8.07;;;;;;;;;;2595356;22;20071;-96
2023/07/02 04:27:21;;;;;;;15.48;9.85;;;;;;;;;;2600059;22;19999;-96
2023/07/02 04:28:25;;;;;;;10.63;8.32;;;;;;;;;;2596106;22;19996;-96
2023/07/02 04:29:25;;;;;;;11.13;7.97;;;;;;;;;;2607863;22;20007;-95
2023/07/02 04:30:26;;;;;;;12.32;9.68;;;;;;;;;;2595495;22;20003;-95
2023/07/02 04:31:39;;;;;;;;;;;;;;;;;;;;;
2023/07/02 04:32:39;;;;;;;13.38;8.88;;;;;;;;;;2613207;22;20498;-96
2023/07/02 04:33:45;;;;;;;11.40;7.65;;;;;;;;;;2607934;22;20034;-96
2023/07/02 04:34:51;;;;;;;14.57;8.10;;;;;;;;;;2612186;22;20002;-96
2023/07/02 04:35:51;;;;;;;12.07;7.95;;;;;;;;;;2612324;22;20360;-95
2023/07/02 04:36:52;;;;;;;11.68;8.20;;;;;;;;;;2607446;22;20074;-96
2023/07/02 04:37:52;;;;;;;20.35;9.90;;;;;;;;;;2595119;22;20399;-95
2023/07/02 04:38:53;;;;;;;13.63;8.75;;;;;;;;;;2612770;22;19999;-96
2023/07/02 04:39:53;;;;;;;12.70;9.07;;;;;;;;;;2607151;22;20018;-96
2023/07/02 04:41:05;;;;;;;17.05;8.73;;;;;;;;;;2595182;22;20061;-96
2023/07/02 04:42:05;;;;;;;11.52;8.70;;;;;;;;;;2601679;22;20006;-94
2023/07/02 04:43:08;;;;;;;13.52;8.18;;;;;;;;;;2615875;22;20290;-94
2023/07/02 04:44:12;;;;;;;16.88;9.38;;;;;;;;;;2616349;22;20108;-92
2023/07/02 04:45:15;;;;;;;14.65;8.60;;;;;;;;;;2597980;22;20000;-94
2023/07/02 04:46:37;;;;;;;17.23;9.60;;;;;;;;;;2607918;22;19999;-96
2023/07/02 04:47:39;;;;;;;12.93;8.95;;;;;;;;;;2608259;22;20081;-94
2023/07/02 04:48:44;;;;;;;14.35;9.27;;;;;;;;;;2608224;22;20002;-95
2023/07/02 04:49:45;;;;;;;14.80;9.10;;;;;;;;;;2608509;22;20472;-95
2023/07/02 04:50:46;;;;;;;17.40;10.32;;;;;;;;;;2611962;22;20046;-95
2023/07/02 04:51:46;;;;;;;17.20;10.35;;;;;;;;;;2608075;22;20069;-95
2023/07/02 04:52:50;;;;;;;16.88;10.18;;;;;;;;;;2595001;22;20435;-95
2023/07/02 04:53:50;;;;;;;16.90;10.18;;;;;;;;;;2595669;22;20034;-95
2023/07/02 04:54:53;;;;;;;17.63;9.73;;;;;;;;;;2594874;22;20007;-96
2023/07/02 04:55:56;;;;;;;14.07;10.07;;;;;;;;;;2596081;22;20018;-95
2023/07/02 04:57:19;;;;;;;16.23;10.80;;;;;;;;;;2595706;22;20398;-96
2023/07/02 04:58:39;;;;;;;16.73;10.95;;;;;;;;;;2599907;22;20057;-96
2023/07/02 04:59:50;;;;;;;13.40;10.52;;;;;;;;;;2603669;22;20049;-96
2023/07/02 05:00:50;;;;;;;15.48;10.95;;;;;;;;;;2601631;22;20132;-96
2023/07/02 05:01:51;;;;;;;15.77;11.43;;;;;;;;;;2595115;22;20460;-95
2023/07/02 05:02:53;;;;;;;13.55;11.20;;;;;;;;;;2595189;22;20037;-95
2023/07/02 05:03:56;;;;;;;18.27;11.82;;;;;;;;;;2608911;22;20015;-96
2023/07/02 05:04:57;;;;;;;17.10;12.40;;;;;;;;;;2608405;22;20002;-95
2023/07/02 05:05:57;;;;;;;15.70;11.25;;;;;;;;;;2607968;22;20082;-95
2023/07/02 05:06:59;;;;;;;15.88;11.88;;;;;;;;;;2595015;22;20433;-96
2023/07/02 05:08:00;;;;;;;16.13;11.57;;;;;;;;;;2595009;22;20119;-96
2023/07/02 05:09:06;;;;;;;14.60;11.27;;;;;;;;;;2595078;22;20392;-96
2023/07/02 05:10:09;;;;;;;15.50;10.85;;;;;;;;;;2608331;22;19999;-95
2023/07/02 05:11:10;;;;;;;14.52;11.20;;;;;;;;;;2594861;22;19996;-95
2023/07/02 05:12:12;;;;;;;17.10;10.70;;;;;;;;;;2607831;22;20002;-96
2023/07/02 05:13:13;;;;;;;14.20;10.82;;;;;;;;;;2608190;22;20148;-95
2023/07/02 05:14:13;;;;;;;13.35;11.10;;;;;;;;;;2607730;22;19995;-95
2023/07/02 05:15:14;;;;;;;13.48;10.02;;;;;;;;;;2607678;22;20006;-94
2023/07/02 05:16:15;;;;;;;18.35;10.57;;;;;;;;;;2612022;22;19991;-94
2023/07/02 05:17:18;;;;;;;14.40;11.35;;;;;;;;;;2608188;22;20023;-95
2023/07/02 05:18:25;;;;;;;15.15;10.27;;;;;;;;;;2595466;22;20002;-95
2023/07/02 05:19:26;;;;;;;13.75;10.88;;;;;;;;;;2613047;22;20301;-96
2023/07/02 05:20:29;;;;;;;13.30;9.60;;;;;;;;;;2612057;22;19996;-93
2023/07/02 05:21:30;;;;;;;16.75;8.93;;;;;;;;;;2598625;22;19999;-94
2023/07/02 05:22:35;;;;;;;12.63;9.00;;;;;;;;;;2611484;22;20433;-94
2023/07/02 05:23:36;;;;;;;11.30;8.35;;;;;;;;;;2607389;22;20522;-94
2023/07/02 05:24:40;;;;;;;8.57;7.68;;;;;;;;;;2620902;22;20021;-96
2023/07/02 05:25:45;;;;;;;9.52;7.75;;;;;;;;;;2606880;22;20008;-95
2023/07/02 05:26:46;;;;;;;10.20;7.05;;;;;;;;;;2609093;22;19999;-94
2023/07/02 05:27:49;;;;;;;10.65;7.35;;;;;;;;;;2618953;22;20035;-96
2023/07/02 05:28:52;;;;;;;10.85;7.65;;;;;;;;;;2619055;22;19987;-95
2023/07/02 05:29:57;;;;;;;9.15;6.78;;;;;;;;;;2605002;22;20000;-96
2023/07/02 05:30:57;;;;;;;9.63;7.65;;;;;;;;;;2598817;22;20050;-96
2023/07/02 05:32:00;;;;;;;7.68;6.93;;;;;;;;;;2613749;22;19995;-93
2023/07/02 05:33:08;;;;;;;9.55;7.25;;;;;;;;;;2611948;22;19991;-95
2023/07/02 05:34:10;;;;;;;9.95;7.25;;;;;;;;;;2596328;22;20503;-94
2023/07/02 05:35:12;;;;;;;8.30;7.13;;;;;;;;;;2612224;22;20002;-95
2023/07/02 05:36:13;;;;;;;8.55;6.80;;;;;;;;;;2608701;22;19991;-94
2023/07/02 05:37:16;;;;;;;9.43;6.68;;;;;;;;;;2595283;22;20034;-95
2023/07/02 05:38:18;;;;;;;8.65;6.72;;;;;;;;;;2608894;22;20121;-95
2023/07/02 05:39:21;;;;;;;8.43;6.78;;;;;;;;;;2607892;22;20022;-95
2023/07/02 05:40:22;;;;;;;9.20;6.78;;;;;;;;;;2612171;22;20006;-95
2023/07/02 05:41:30;;;;;;;9.45;6.72;;;;;;;;;;2607009;22;20078;-94
2023/07/02 05:42:30;;;;;;;9.38;7.43;;;;;;;;;;2611829;22;19998;-96
2023/07/02 05:43:31;;;;;;;8.40;7.32;;;;;;;;;;2594910;22;19992;-96
2023/07/02 05:44:31;;;;;;;8.07;6.53;;;;;;;;;;2594494;22;20348;-94
2023/07/02 05:45:32;;;;;;;9.82;6.90;;;;;;;;;;2594615;22;20053;-94
2023/07/02 05:46:32;;;;;;;8.93;7.30;;;;;;;;;;2594673;22;19991;-95
2023/07/02 05:47:33;;;;;;;9.63;7.13;;;;;;;;;;2594504;22;20394;-92
2023/07/02 05:48:33;;;;;;;8.75;7.20;;;;;;;;;;2612088;22;20046;-95
2023/07/02 05:49:34;;;;;;;10.30;7.05;;;;;;;;;;2612007;22;20024;-94
2023/07/02 05:50:34;;;;;;;10.30;6.57;;;;;;;;;;2607500;22;20074;-95
2023/07/02 05:51:35;;;;;;;9.73;6.80;;;;;;;;;;2595258;22;20365;-96
2023/07/02 05:52:38;;;;;;;7.15;6.10;;;;;;;;;;2595001;22;20006;-96
2023/07/02 05:53:40;;;;;;;10.90;6.57;;;;;;;;;;2595039;22;19991;-96
2023/07/02 05:54:41;;;;;;;6.15;5.55;;;;;;;;;;2608789;22;20432;-96
2023/07/02 05:55:42;;;;;;;7.00;5.93;;;;;;;;;;2582518;23;20011;-96
2023/07/02 05:56:43;;;;;;;9.98;5.88;;;;;;;;;;2582438;22;20031;-96
2023/07/02 05:59:17;;;;;;;5.95;5.00;;;;;;;;;;2581822;22;20337;-95
2023/07/02 06:00:18;;;;;;;5.93;5.28;;;;;;;;;;2607743;22;20339;-95
2023/07/02 06:01:21;;;;;;;8.68;5.40;;;;;;;;;;2612847;22;19998;-96
2023/07/02 06:03:19;;;;;;;16.42;6.82;;;;;;;;;;2607689;22;19999;-96
2023/07/02 06:11:04;;;;;;;7.38;5.63;;;;;;;;;;2573701;23;20434;-96
2023/07/02 06:12:20;;;;;;;8.07;5.60;;;;;;;;;;2573568;23;20414;-95
2023/07/02 06:13:23;;;;;;;7.22;5.70;;;;;;;;;;2557142;23;19997;-96
2023/07/02 06:14:25;;;;;;;7.32;5.22;;;;;;;;;;2544604;23;20105;-95
2023/07/02 06:15:26;;;;;;;6.57;5.25;;;;;;;;;;2545285;23;20489;-96
2023/07/02 06:17:09;;;;;;;;;;;;;;;;;;;;;
2023/07/02 06:18:12;;;;;;;6.00;5.20;;;;;;;;;;2562812;23;20151;-93
2023/07/02 06:19:25;;;;;;;8.30;6.15;;;;;;;;;;2577632;23;20011;-96
2023/07/02 06:20:44;;;;;;;;;;;;;;;;;;;;;
2023/07/02 06:21:48;;;;;;;6.97;5.60;;;;;;;;;;2562765;23;20427;-96
2023/07/02 06:22:59;;;;;;;6.82;6.03;;;;;;;;;;2557064;23;19993;-96
2023/07/02 06:26:36;;;;;;;;;;;;;;;;;;;;;